createdAt,value
2022-11-28T00:01:44.327Z,12.60
2022-11-28T00:04:13.837Z,10.37
2022-11-28T00:06:48.070Z,6.83
2022-11-28T00:09:18.042Z,7.17
2022-11-28T00:11:49.360Z,6.40
2022-11-28T00:14:19.965Z,8.07
2022-11-28T00:16:48.709Z,8.63
2022-11-28T00:19:17.377Z,12.33
2022-11-28T00:21:45.855Z,8.70
2022-11-28T00:24:14.319Z,5.77
2022-11-28T00:26:43.370Z,7.50
2022-11-28T00:29:12.122Z,9.07
2022-11-28T00:31:43.403Z,6.27
2022-11-28T00:34:13.874Z,8.00
2022-11-28T00:36:43.753Z,15.60
2022-11-28T00:39:12.095Z,9.67
2022-11-28T00:41:40.632Z,13.37
2022-11-28T00:44:09.143Z,22.67
2022-11-28T00:46:37.792Z,15.80
2022-11-28T00:49:06.240Z,16.57
2022-11-28T00:51:35.705Z,13.10
2022-11-28T00:54:06.670Z,15.43
2022-11-28T00:56:39.083Z,13.20
2022-11-28T00:59:08.219Z,12.87
2022-11-28T01:01:40.171Z,14.73
2022-11-28T01:04:11.119Z,13.23
2022-11-28T01:06:43.329Z,13.17
2022-11-28T01:09:21.619Z,9.07
2022-11-28T01:11:51.626Z,8.10
2022-11-28T01:14:22.556Z,9.87
2022-11-28T01:16:51.076Z,10.87
2022-11-28T01:19:19.709Z,11.40
2022-11-28T01:21:48.314Z,10.63
2022-11-28T01:24:16.949Z,13.27
2022-11-28T01:26:45.621Z,13.00
2022-11-28T01:29:14.474Z,9.83
2022-11-28T01:31:43.087Z,11.80
2022-11-28T01:34:11.533Z,15.33
2022-11-28T01:36:40.002Z,12.37
2022-11-28T01:39:08.504Z,15.73
2022-11-28T01:41:37.134Z,11.10
2022-11-28T01:44:17.066Z,14.50
2022-11-28T01:46:45.782Z,11.87
2022-11-28T01:49:34.865Z,18.70
2022-11-28T01:52:08.709Z,17.33
2022-11-28T01:54:38.856Z,18.00
2022-11-28T01:57:12.272Z,16.33
2022-11-28T01:59:52.321Z,14.67
2022-11-28T02:02:31.410Z,15.57
2022-11-28T02:05:00.704Z,13.00
2022-11-28T02:07:29.266Z,15.90
2022-11-28T02:09:58.291Z,13.10
2022-11-28T02:12:54.336Z,14.13
2022-11-28T02:16:05.659Z,15.43
2022-11-28T02:19:12.425Z,11.90
2022-11-28T02:22:07.463Z,14.17
2022-11-28T02:24:55.320Z,12.13
2022-11-28T02:27:23.877Z,16.27
2022-11-28T02:30:13.103Z,14.50
2022-11-28T02:33:15.809Z,13.80
2022-11-28T02:36:04.672Z,13.77
2022-11-28T02:38:44.973Z,19.20
2022-11-28T02:41:38.517Z,16.70
2022-11-28T02:44:12.609Z,12.30
2022-11-28T02:47:25.960Z,14.10
2022-11-28T02:50:25.729Z,18.37
2022-11-28T02:53:04.742Z,18.97
2022-11-28T02:55:33.340Z,18.33
2022-11-28T02:58:02.313Z,20.33
2022-11-28T03:00:36.804Z,22.30
2022-11-28T03:03:26.320Z,18.83
2022-11-28T03:06:23.544Z,14.47
2022-11-28T03:09:07.495Z,11.83
2022-11-28T03:12:05.374Z,10.70
2022-11-28T03:14:55.919Z,7.10
2022-11-28T03:17:39.626Z,7.10
2022-11-28T03:20:14.016Z,6.80
2022-11-28T03:23:21.510Z,7.90
2022-11-28T03:26:10.869Z,10.13
2022-11-28T03:28:52.778Z,8.70
2022-11-28T03:31:39.907Z,7.57
2022-11-28T03:34:13.182Z,11.10
2022-11-28T03:36:48.701Z,13.27
2022-11-28T03:39:21.782Z,14.23
2022-11-28T03:41:56.233Z,11.60
2022-11-28T03:44:37.469Z,13.10
2022-11-28T03:47:08.172Z,11.73
2022-11-28T03:49:46.775Z,10.50
2022-11-28T03:52:29.460Z,8.53
2022-11-28T03:55:04.650Z,9.67
2022-11-28T03:58:00.444Z,10.70
2022-11-28T04:00:29.086Z,9.73
2022-11-28T04:03:00.596Z,9.73
2022-11-28T04:05:39.458Z,7.90
2022-11-28T04:08:46.677Z,9.60
2022-11-28T04:11:19.621Z,8.20
2022-11-28T04:13:58.829Z,7.07
2022-11-28T04:16:40.422Z,7.50
2022-11-28T04:19:24.876Z,7.90
2022-11-28T04:22:00.780Z,6.07
2022-11-28T04:24:35.285Z,6.30
2022-11-28T04:27:08.017Z,6.60
2022-11-28T04:29:41.013Z,5.03
2022-11-28T04:32:10.559Z,5.10
2022-11-28T04:34:44.410Z,5.80
2022-11-28T04:37:15.761Z,7.20
2022-11-28T04:39:48.891Z,8.57
2022-11-28T04:42:24.510Z,5.47
2022-11-28T04:45:12.679Z,6.90
2022-11-28T04:47:41.351Z,6.67
2022-11-28T04:50:10.315Z,6.90
2022-11-28T04:52:46.568Z,7.00
2022-11-28T04:55:31.214Z,5.83
2022-11-28T04:58:22.397Z,7.10
2022-11-28T05:00:54.468Z,7.47
2022-11-28T05:03:23.471Z,7.40
2022-11-28T05:05:53.085Z,6.93
2022-11-28T05:08:21.555Z,7.60
2022-11-28T05:10:50.437Z,6.53
2022-11-28T05:13:18.904Z,11.47
2022-11-28T05:15:47.345Z,9.87
2022-11-28T05:18:15.786Z,7.43
2022-11-28T05:20:45.332Z,7.77
2022-11-28T05:23:13.711Z,8.90
2022-11-28T05:25:42.050Z,7.30
2022-11-28T05:28:10.917Z,12.53
2022-11-28T05:30:39.337Z,8.40
2022-11-28T05:33:07.698Z,6.40
2022-11-28T05:35:36.075Z,5.97
2022-11-28T05:38:05.578Z,9.27
2022-11-28T05:40:35.610Z,6.27
2022-11-28T05:43:03.984Z,6.90
2022-11-28T05:45:32.372Z,6.50
2022-11-28T05:48:00.805Z,6.60
2022-11-28T05:50:29.158Z,5.80
2022-11-28T05:52:57.533Z,7.13
2022-11-28T05:55:26.069Z,7.20
2022-11-28T05:57:55.546Z,7.07
2022-11-28T06:00:24.223Z,6.70
2022-11-28T06:02:55.932Z,5.60
2022-11-28T06:05:42.188Z,5.60
2022-11-28T06:08:13.555Z,5.60
2022-11-28T06:10:42.185Z,6.70
2022-11-28T06:13:10.532Z,6.60
2022-11-28T06:15:38.935Z,7.00
2022-11-28T06:18:07.530Z,9.40
2022-11-28T06:20:38.835Z,8.03
2022-11-28T06:23:07.205Z,5.83
2022-11-28T06:25:35.676Z,8.00
2022-11-28T06:28:04.086Z,5.70
2022-11-28T06:30:32.464Z,6.67
2022-11-28T06:33:00.800Z,6.60
2022-11-28T06:35:29.177Z,6.30
2022-11-28T06:37:57.588Z,5.77
2022-11-28T06:40:25.931Z,6.20
2022-11-28T06:42:54.349Z,6.80
2022-11-28T06:45:22.706Z,5.77
2022-11-28T06:47:51.073Z,5.33
2022-11-28T06:50:19.536Z,5.67
2022-11-28T06:52:47.888Z,6.00
2022-11-28T06:55:16.440Z,4.97
2022-11-28T06:57:45.019Z,5.00
2022-11-28T07:00:13.898Z,5.00
2022-11-28T07:02:42.309Z,4.43
2022-11-28T07:05:10.951Z,4.10
2022-11-28T07:07:53.357Z,4.77
2022-11-28T07:10:23.377Z,4.30
2022-11-28T07:13:05.376Z,3.37
2022-11-28T07:15:34.509Z,3.57
2022-11-28T07:18:02.958Z,3.53
2022-11-28T07:20:31.341Z,4.40
2022-11-28T07:22:59.772Z,3.20
2022-11-28T07:25:28.118Z,3.17
2022-11-28T07:27:56.660Z,3.20
2022-11-28T07:30:25.154Z,5.40
2022-11-28T07:32:53.661Z,8.60
2022-11-28T07:35:22.257Z,6.23
2022-11-28T07:37:50.778Z,16.63
2022-11-28T07:40:20.588Z,8.93
2022-11-28T07:42:49.648Z,8.47
2022-11-28T07:45:18.221Z,19.10
2022-11-28T07:47:46.586Z,21.53
2022-11-28T07:50:14.972Z,11.40
2022-11-28T07:52:43.394Z,18.17
2022-11-28T07:55:11.976Z,14.37
2022-11-28T07:57:40.323Z,5.70
2022-11-28T08:00:09.470Z,11.63
2022-11-28T08:02:40.393Z,3.73
2022-11-28T08:05:09.143Z,4.77
2022-11-28T08:07:37.612Z,7.53
2022-11-28T08:10:09.084Z,8.97
2022-11-28T08:12:37.493Z,9.37
2022-11-28T08:15:06.442Z,12.73
2022-11-28T08:17:36.040Z,11.67
2022-11-28T08:20:04.670Z,24.70
2022-11-28T08:22:33.026Z,15.77
2022-11-28T08:25:01.511Z,14.37
2022-11-28T08:27:29.900Z,12.20
2022-11-28T08:29:58.280Z,25.63
2022-11-28T08:32:26.718Z,22.73
2022-11-28T08:34:55.065Z,23.70
2022-11-28T08:37:23.414Z,18.70
2022-11-28T08:39:51.807Z,24.70
2022-11-28T08:42:20.278Z,22.67
2022-11-28T08:44:48.677Z,24.90
2022-11-28T08:47:17.269Z,21.90
2022-11-28T08:49:45.964Z,20.47
2022-11-28T08:52:14.510Z,26.93
2022-11-28T08:54:43.151Z,22.50
2022-11-28T08:57:11.774Z,4.60
2022-11-28T08:59:40.178Z,7.57
2022-11-28T09:02:10.948Z,18.10
2022-11-28T09:04:39.646Z,14.27
2022-11-28T09:07:08.066Z,50.23
2022-11-28T09:09:36.829Z,11.73
2022-11-28T09:12:05.257Z,13.60
2022-11-28T09:14:33.872Z,8.00
2022-11-28T09:17:02.478Z,6.67
2022-11-28T09:19:30.918Z,10.40
2022-11-28T09:21:59.304Z,27.80
2022-11-28T09:24:27.731Z,8.20
2022-11-28T09:26:56.120Z,11.23
2022-11-28T09:29:24.559Z,2.77
2022-11-28T09:31:52.977Z,1.97
2022-11-28T09:34:22.160Z,1.97
2022-11-28T09:36:50.921Z,9.67
2022-11-28T09:39:19.364Z,7.87
2022-11-28T09:42:09.277Z,1.80
2022-11-28T09:44:53.942Z,4.50
2022-11-28T09:47:30.236Z,4.97
2022-11-28T09:50:30.008Z,17.57
2022-11-28T09:53:42.734Z,22.93
2022-11-28T09:56:16.893Z,3.23
2022-11-28T09:58:56.654Z,24.63
2022-11-28T10:01:43.476Z,6.13
2022-11-28T10:04:36.044Z,14.53
2022-11-28T10:07:38.819Z,22.70
2022-11-28T10:10:35.531Z,2.43
2022-11-28T10:13:27.424Z,10.10
2022-11-28T10:16:13.420Z,17.23
2022-11-28T10:18:50.027Z,6.73
2022-11-28T10:21:37.345Z,3.03
2022-11-28T10:24:12.890Z,3.97
2022-11-28T10:26:49.865Z,19.73
2022-11-28T10:29:30.484Z,19.00
2022-11-28T10:32:04.744Z,18.53
2022-11-28T10:34:42.144Z,16.50
2022-11-28T10:37:26.432Z,32.00
2022-11-28T10:39:56.060Z,7.80
2022-11-28T10:42:33.689Z,6.70
2022-11-28T10:45:10.825Z,5.90
2022-11-28T10:47:54.591Z,6.80
2022-11-28T10:50:56.991Z,9.93
2022-11-28T10:53:42.355Z,38.30
2022-11-28T10:56:11.699Z,4.90
2022-11-28T10:59:04.544Z,3.70
2022-11-28T11:01:39.747Z,7.53
2022-11-28T11:04:22.129Z,7.43
2022-11-28T11:07:22.720Z,3.30
2022-11-28T11:09:53.022Z,2.73
2022-11-28T11:12:26.656Z,4.40
2022-11-28T11:14:55.294Z,7.03
2022-11-28T11:17:36.488Z,4.20
2022-11-28T11:20:29.319Z,4.20
2022-11-28T11:23:04.723Z,9.57
2022-11-28T11:25:33.769Z,4.20
2022-11-28T11:28:05.309Z,3.80
2022-11-28T11:30:39.602Z,3.70
2022-11-28T11:33:18.146Z,6.83
2022-11-28T11:35:50.159Z,2.70
2022-11-28T11:38:24.474Z,3.13
2022-11-28T11:40:53.353Z,2.00
2022-11-28T11:43:28.253Z,1.87
2022-11-28T11:46:10.582Z,2.20
2022-11-28T11:48:44.175Z,2.80
2022-11-28T11:51:35.222Z,2.47
2022-11-28T11:54:16.688Z,2.30
2022-11-28T11:56:49.468Z,2.50
2022-11-28T11:59:31.352Z,2.50
2022-11-28T12:02:10.040Z,3.50
2022-11-28T12:04:55.013Z,2.80
2022-11-28T12:07:54.318Z,2.43
2022-11-28T12:10:26.648Z,3.43
2022-11-28T12:12:55.365Z,2.70
2022-11-28T12:15:47.597Z,2.10
2022-11-28T12:18:18.819Z,1.90
2022-11-28T12:21:11.896Z,1.47
2022-11-28T12:23:53.598Z,1.57
2022-11-28T12:26:52.642Z,1.50
2022-11-28T12:29:49.696Z,1.07
2022-11-28T12:32:30.125Z,1.37
2022-11-28T12:35:22.812Z,1.30
2022-11-28T12:38:11.693Z,1.27
2022-11-28T12:41:06.907Z,1.90
2022-11-28T12:43:56.714Z,1.50
2022-11-28T12:46:59.345Z,1.90
2022-11-28T12:49:55.005Z,1.70
2022-11-28T12:52:26.405Z,1.80
2022-11-28T12:55:03.957Z,1.33
2022-11-28T12:58:07.137Z,1.30
2022-11-28T13:00:41.334Z,2.20
2022-11-28T13:03:35.406Z,1.98
2022-11-28T13:06:19.137Z,1.60
2022-11-28T13:08:59.760Z,1.42
2022-11-28T13:11:44.435Z,1.35
2022-11-28T13:14:29.694Z,1.20
2022-11-28T13:17:13.116Z,1.47
2022-11-28T13:20:01.573Z,1.38
2022-11-28T13:22:57.966Z,1.20
2022-11-28T13:25:46.726Z,1.33
2022-11-28T13:28:42.112Z,1.27
2022-11-28T13:31:30.429Z,1.02
2022-11-28T13:33:59.360Z,1.30
2022-11-28T13:40:03.386Z,1.23
2022-11-28T13:43:08.181Z,1.13
2022-11-28T13:45:44.367Z,1.27
2022-11-28T13:51:34.128Z,1.10
2022-11-28T13:54:21.049Z,1.48
2022-11-28T13:57:22.022Z,1.50
2022-11-28T14:00:00.914Z,1.35
2022-11-28T14:02:44.360Z,1.38
2022-11-28T14:05:36.419Z,1.40
2022-11-28T14:08:06.458Z,1.35
2022-11-28T14:10:56.898Z,1.60
2022-11-28T14:13:45.640Z,1.45
2022-11-28T14:16:52.161Z,1.35
2022-11-28T14:19:32.995Z,1.95
2022-11-28T14:22:19.550Z,1.80
2022-11-28T14:25:07.978Z,2.30
2022-11-28T14:27:40.767Z,1.80
2022-11-28T14:30:35.689Z,2.20
2022-11-28T14:33:28.318Z,2.15
2022-11-28T14:36:04.986Z,2.58
2022-11-28T14:38:36.334Z,2.28
2022-11-28T14:41:09.862Z,2.30
2022-11-28T14:43:40.862Z,2.03
2022-11-28T14:46:20.318Z,2.40
2022-11-28T14:49:01.036Z,1.98
2022-11-28T14:52:15.797Z,2.17
2022-11-28T14:54:44.960Z,2.20
2022-11-28T14:57:21.139Z,2.50
2022-11-28T14:59:50.913Z,2.10
2022-11-28T15:02:43.030Z,2.20
2022-11-28T15:05:46.308Z,2.80
2022-11-28T15:08:30.363Z,2.50
2022-11-28T15:11:10.217Z,4.38
2022-11-28T15:14:07.280Z,24.38
2022-11-28T15:16:37.582Z,48.67
2022-11-28T15:19:17.132Z,32.72
2022-11-28T15:21:48.005Z,41.95
2022-11-28T15:24:38.360Z,62.63
2022-11-28T15:27:09.680Z,75.25
2022-11-28T15:29:38.550Z,58.75
2022-11-28T15:32:07.373Z,61.00
2022-11-28T15:34:38.517Z,57.33
2022-11-28T15:37:17.431Z,53.45
2022-11-28T15:39:49.471Z,79.45
2022-11-28T15:42:39.734Z,61.58
2022-11-28T15:45:26.503Z,17.75
2022-11-28T15:47:56.320Z,10.23
2022-11-28T15:50:28.130Z,6.60
2022-11-28T15:53:19.155Z,4.35
2022-11-28T15:55:48.078Z,3.72
2022-11-28T15:58:32.401Z,4.45
2022-11-28T16:01:06.387Z,3.75
2022-11-28T16:03:55.235Z,2.97
2022-11-28T16:06:27.361Z,3.30
2022-11-28T16:09:05.446Z,2.97
2022-11-28T16:11:36.298Z,3.35
2022-11-28T16:14:12.314Z,3.15
2022-11-28T16:16:41.072Z,2.90
2022-11-28T16:19:20.752Z,2.85
2022-11-28T16:21:56.114Z,2.85
2022-11-28T16:24:38.874Z,2.55
2022-11-28T16:27:07.910Z,2.75
2022-11-28T16:29:38.228Z,3.30
2022-11-28T16:32:22.568Z,2.55
2022-11-28T16:34:53.797Z,3.27
2022-11-28T16:37:26.030Z,2.70
2022-11-28T16:40:21.332Z,2.88
2022-11-28T16:42:57.174Z,3.23
2022-11-28T16:45:31.821Z,2.93
2022-11-28T16:48:16.723Z,2.50
2022-11-28T16:51:03.342Z,2.23
2022-11-28T16:53:48.732Z,3.10
2022-11-28T16:56:32.248Z,2.00
2022-11-28T16:59:20.013Z,2.13
2022-11-28T17:01:54.618Z,3.07
2022-11-28T17:04:30.436Z,3.13
2022-11-28T17:07:06.106Z,4.00
2022-11-28T17:09:34.868Z,3.30
2022-11-28T17:12:21.651Z,2.13
2022-11-28T17:14:50.239Z,4.40
2022-11-28T17:17:20.019Z,2.37
2022-11-28T17:19:48.640Z,2.57
2022-11-28T17:22:22.996Z,2.60
2022-11-28T17:24:52.576Z,2.70
2022-11-28T17:27:20.970Z,2.00
2022-11-28T17:29:49.413Z,2.20
2022-11-28T17:32:17.815Z,2.80
2022-11-28T17:34:49.272Z,2.40
2022-11-28T17:37:17.804Z,2.13
2022-11-28T17:40:06.017Z,2.03
2022-11-28T17:42:34.381Z,1.90
2022-11-28T17:45:02.745Z,2.87
2022-11-28T17:47:31.249Z,3.50
2022-11-28T17:49:59.725Z,3.97
2022-11-28T17:52:30.949Z,2.53
2022-11-28T17:55:07.199Z,2.13
2022-11-28T17:57:36.331Z,2.20
2022-11-28T18:00:07.626Z,2.30
2022-11-28T18:02:36.033Z,1.97
2022-11-28T18:05:04.628Z,2.10
2022-11-28T18:07:33.168Z,2.13
2022-11-28T18:10:01.539Z,2.00
2022-11-28T18:12:29.988Z,2.07
2022-11-28T18:15:00.527Z,2.40
2022-11-28T18:17:28.990Z,1.73
2022-11-28T18:19:57.843Z,1.87
2022-11-28T18:22:26.460Z,2.13
2022-11-28T18:24:54.896Z,3.23
2022-11-28T18:27:23.273Z,2.10
2022-11-28T18:29:52.192Z,1.97
2022-11-28T18:32:20.632Z,1.60
2022-11-28T18:34:49.054Z,1.40
2022-11-28T18:37:17.567Z,1.60
2022-11-28T18:39:46.290Z,1.80
2022-11-28T18:42:14.987Z,1.80
2022-11-28T18:44:43.412Z,1.97
2022-11-28T18:47:12.091Z,1.33
2022-11-28T18:49:40.591Z,1.87
2022-11-28T18:52:09.121Z,1.50
2022-11-28T18:54:39.241Z,1.90
2022-11-28T18:57:10.908Z,1.70
2022-11-28T18:59:39.248Z,2.43
2022-11-28T19:02:08.060Z,1.53
2022-11-28T19:04:36.554Z,1.30
2022-11-28T19:07:05.007Z,1.90
2022-11-28T19:09:33.618Z,1.87
2022-11-28T19:12:02.014Z,1.60
2022-11-28T19:14:31.068Z,2.57
2022-11-28T19:16:59.496Z,2.00
2022-11-28T19:19:27.953Z,1.87
2022-11-28T19:21:56.798Z,2.37
2022-11-28T19:24:25.325Z,6.70
2022-11-28T19:26:53.698Z,19.10
2022-11-28T19:29:22.078Z,2.87
2022-11-28T19:31:50.606Z,3.70
2022-11-28T19:34:20.089Z,1.53
2022-11-28T19:36:51.775Z,1.80
2022-11-28T19:39:25.826Z,1.93
2022-11-28T19:41:55.320Z,1.70
2022-11-28T19:44:25.589Z,1.30
2022-11-28T19:46:54.239Z,1.10
2022-11-28T19:49:24.781Z,1.30
2022-11-28T19:51:55.167Z,1.47
2022-11-28T19:54:23.626Z,2.40
2022-11-28T19:56:52.501Z,2.20
2022-11-28T19:59:20.915Z,1.60
2022-11-28T20:01:50.672Z,2.00
2022-11-28T20:04:20.178Z,1.93
2022-11-28T20:06:48.532Z,1.70
2022-11-28T20:09:16.883Z,2.00
2022-11-28T20:11:46.489Z,1.37
2022-11-28T20:14:18.416Z,1.20
2022-11-28T20:16:47.587Z,2.63
2022-11-28T20:19:16.214Z,2.00
2022-11-28T20:21:44.629Z,2.20
2022-11-28T20:24:13.278Z,2.13
2022-11-28T20:26:44.203Z,2.43
2022-11-28T20:29:16.109Z,2.20
2022-11-28T20:31:46.561Z,4.73
2022-11-28T20:34:16.654Z,7.47
2022-11-28T20:36:45.373Z,8.33
2022-11-28T20:39:14.256Z,10.47
2022-11-28T20:41:42.720Z,11.47
2022-11-28T20:44:11.652Z,7.83
2022-11-28T20:46:40.700Z,11.27
2022-11-28T20:49:09.136Z,2.63
2022-11-28T20:51:37.847Z,2.23
2022-11-28T20:54:07.825Z,5.53
2022-11-28T20:57:12.706Z,6.83
2022-11-28T20:59:31.211Z,12.70
2022-11-28T21:01:59.619Z,5.70
2022-11-28T21:04:28.055Z,2.60
2022-11-28T21:06:56.491Z,16.37
2022-11-28T21:09:24.988Z,3.40
2022-11-28T21:11:58.441Z,7.77
2022-11-28T21:14:29.480Z,7.87
2022-11-28T21:16:59.134Z,21.00
2022-11-28T21:19:27.815Z,16.53
2022-11-28T21:21:56.248Z,1.67
2022-11-28T21:24:24.612Z,1.40
2022-11-28T21:26:54.674Z,11.90
2022-11-28T21:29:25.472Z,17.30
2022-11-28T21:31:54.458Z,4.97
2022-11-28T21:34:23.517Z,11.33
2022-11-28T21:36:52.052Z,15.27
2022-11-28T21:39:22.608Z,6.60
2022-11-28T21:41:51.932Z,4.77
2022-11-28T21:44:20.570Z,2.83
2022-11-28T21:46:49.071Z,6.70
2022-11-28T21:49:17.969Z,9.60
2022-11-28T21:51:46.359Z,7.17
2022-11-28T21:54:14.734Z,4.20
2022-11-28T21:56:43.434Z,7.90
2022-11-28T21:59:11.789Z,4.67
2022-11-28T22:01:40.419Z,10.70
2022-11-28T22:04:08.913Z,8.10
2022-11-28T22:06:37.271Z,8.70
2022-11-28T22:09:09.518Z,4.70
2022-11-28T22:11:39.147Z,10.27
2022-11-28T22:14:08.769Z,4.20
2022-11-28T22:16:37.221Z,3.60
2022-11-28T22:19:05.798Z,9.23
2022-11-28T22:24:23.086Z,3.00
2022-11-28T22:26:51.650Z,5.27
2022-11-28T22:29:20.232Z,5.40
2022-11-28T22:31:48.767Z,2.90
2022-11-28T22:34:17.188Z,3.27
2022-11-28T22:36:45.557Z,2.47
2022-11-28T22:39:13.986Z,3.17
2022-11-28T22:41:42.423Z,2.70
2022-11-28T22:44:12.473Z,3.10
2022-11-28T22:46:41.007Z,3.10
2022-11-28T22:49:10.339Z,3.30
2022-11-28T22:51:38.922Z,2.93
2022-11-28T22:54:07.576Z,4.23
2022-11-28T22:56:36.054Z,3.50
2022-11-28T22:59:05.726Z,2.40
2022-11-28T23:01:35.553Z,2.90
2022-11-28T23:04:03.985Z,3.13
2022-11-28T23:06:35.258Z,4.57
2022-11-28T23:09:07.045Z,4.67
2022-11-28T23:11:37.713Z,5.90
2022-11-28T23:14:06.787Z,4.03
2022-11-28T23:16:40.340Z,3.57
2022-11-28T23:19:14.022Z,3.47
2022-11-28T23:21:45.725Z,3.50
2022-11-28T23:24:19.579Z,4.80
2022-11-28T23:26:49.405Z,3.83
2022-11-28T23:29:18.860Z,3.27
2022-11-28T23:31:48.273Z,3.03
2022-11-28T23:34:17.295Z,3.50
2022-11-28T23:36:47.754Z,3.40
2022-11-28T23:39:21.334Z,3.37
2022-11-28T23:41:50.204Z,3.73
2022-11-28T23:44:20.285Z,3.27
2022-11-28T23:46:49.219Z,3.90
2022-11-28T23:49:17.587Z,3.67
2022-11-28T23:51:45.998Z,4.00
2022-11-28T23:54:14.716Z,3.50
2022-11-28T23:56:43.841Z,2.63
2022-11-28T23:59:13.568Z,3.60
